Time;durP1;ratioP1;P1;durP2;ratioP2;P2;SDS_P1;SDS_P2;PMS_P1;PMS_P2;Temp;Humidity;BMP_temperature;BMP_pressure;BME280_temperature;BME280_humidity;BME280_pressure;Samples;Min_cycle;Max_cycle;Signal;HPM_P1;HPM_P2
2022/09/03 00:01:03;;;;;;;1.90;1.73;;;24.40;92.20;;;;;;4196490;28;20271;-73
2022/09/03 00:03:12;;;;;;;2.55;1.95;;;24.40;92.30;;;;;;4198186;28;20271;-73
2022/09/03 00:05:22;;;;;;;2.00;1.80;;;24.40;92.20;;;;;;4193120;28;20575;-73
2022/09/03 00:07:31;;;;;;;1.92;1.73;;;24.40;92.20;;;;;;4196105;28;20650;-73
2022/09/03 00:09:40;;;;;;;2.25;1.70;;;24.40;92.30;;;;;;4199691;28;20211;-73
2022/09/03 00:11:50;;;;;;;1.90;1.70;;;24.40;92.40;;;;;;4198263;28;20263;-74
2022/09/03 00:13:58;;;;;;;2.45;2.05;;;24.40;92.40;;;;;;4199178;28;20273;-75
2022/09/03 00:16:10;;;;;;;1.70;1.60;;;24.40;92.30;;;;;;4203155;28;20603;-76
2022/09/03 00:18:17;;;;;;;2.97;1.90;;;24.40;92.40;;;;;;4205637;28;20223;-76
2022/09/03 00:20:24;;;;;;;2.15;1.52;;;24.40;92.50;;;;;;4202653;28;20689;-75
2022/09/03 00:22:32;;;;;;;1.90;1.70;;;24.40;92.50;;;;;;4196905;28;20206;-76
2022/09/03 00:24:39;;;;;;;3.50;2.00;;;24.40;92.60;;;;;;4205860;28;20616;-76
2022/09/03 00:26:46;;;;;;;2.30;1.85;;;24.40;92.50;;;;;;4204647;28;20219;-76
2022/09/03 00:28:55;;;;;;;1.92;1.67;;;24.40;92.50;;;;;;4197032;28;20237;-76
2022/09/03 00:31:06;;;;;;;2.47;2.28;;;24.40;92.50;;;;;;4196999;28;20211;-73
2022/09/03 00:33:12;;;;;;;2.08;1.88;;;24.40;92.50;;;;;;4210590;28;20260;-74
2022/09/03 00:35:19;;;;;;;2.75;2.00;;;24.40;92.50;;;;;;4202557;28;20219;-73
2022/09/03 00:37:22;;;;;;;3.47;1.73;;;24.40;92.60;;;;;;4196967;28;20268;-73
2022/09/03 00:39:27;;;;;;;2.35;2.00;;;24.40;92.60;;;;;;4201784;28;20271;-74
2022/09/03 00:41:36;;;;;;;2.00;1.80;;;24.40;92.60;;;;;;4196934;28;20239;-75
2022/09/03 00:43:52;;;;;;;2.17;1.92;;;24.40;92.60;;;;;;4204347;28;20214;-75
2022/09/03 00:46:05;;;;;;;2.08;1.77;;;24.40;92.60;;;;;;4189057;28;20212;-76
2022/09/03 00:48:18;;;;;;;1.75;1.55;;;24.40;92.70;;;;;;4195351;28;20211;-74
2022/09/03 00:50:30;;;;;;;2.25;2.00;;;24.40;92.60;;;;;;4199201;28;20218;-76
2022/09/03 00:52:44;;;;;;;3.05;1.80;;;24.40;92.70;;;;;;4194048;28;20215;-76
2022/09/03 00:55:00;;;;;;;1.80;1.63;;;24.40;92.70;;;;;;4203018;28;20803;-76
2022/09/03 00:57:17;;;;;;;2.97;1.80;;;24.40;92.70;;;;;;4203455;28;20240;-76
2022/09/03 00:59:29;;;;;;;2.67;1.90;;;24.40;92.70;;;;;;4202512;28;20215;-76
2022/09/03 01:01:40;;;;;;;3.08;1.70;;;24.40;92.70;;;;;;4198349;28;20231;-76
2022/09/03 01:03:52;;;;;;;2.10;1.90;;;24.30;92.70;;;;;;4198881;28;20272;-76
2022/09/03 01:06:09;;;;;;;2.10;1.75;;;24.40;92.90;;;;;;4199225;28;20276;-75
2022/09/03 01:08:30;;;;;;;2.38;1.70;;;24.40;92.80;;;;;;4196636;28;20265;-76
2022/09/03 01:10:46;;;;;;;2.45;2.00;;;24.30;92.90;;;;;;4194702;28;20720;-76
2022/09/03 01:12:57;;;;;;;2.38;1.65;;;24.30;92.90;;;;;;4189645;28;20218;-76
2022/09/03 01:15:08;;;;;;;3.15;1.83;;;24.40;93.20;;;;;;4197349;28;20625;-76
2022/09/03 01:17:20;;;;;;;2.20;2.00;;;24.30;92.90;;;;;;4204968;28;20214;-74
2022/09/03 01:19:59;;;;;;;5.43;1.90;;;24.30;92.80;;;;;;4193609;28;20218;-74
2022/09/03 01:22:24;;;;;;;2.17;1.98;;;24.30;92.90;;;;;;4196443;28;20235;-72
2022/09/03 01:25:00;;;;;;;3.25;1.95;;;24.30;93.00;;;;;;4203667;28;20211;-73
2022/09/03 01:27:20;;;;;;;2.50;2.00;;;24.30;93.00;;;;;;4184941;28;20210;-72
2022/09/03 01:29:34;;;;;;;3.78;1.88;;;24.30;93.00;;;;;;4194774;28;20211;-74
2022/09/03 01:31:47;;;;;;;2.22;2.03;;;24.30;92.90;;;;;;4194175;28;20263;-75
2022/09/03 01:33:57;;;;;;;2.08;1.70;;;24.30;92.90;;;;;;4189648;28;20238;-74
2022/09/03 01:36:08;;;;;;;2.10;1.88;;;24.30;92.90;;;;;;4191680;28;20241;-75
2022/09/03 01:38:22;;;;;;;3.15;2.00;;;24.30;92.90;;;;;;4194798;28;20272;-74
2022/09/03 01:40:33;;;;;;;2.20;2.00;;;24.30;92.90;;;;;;4190674;28;20365;-75
2022/09/03 01:42:48;;;;;;;2.08;1.80;;;24.30;92.90;;;;;;4194947;28;20233;-72
2022/09/03 01:45:13;;;;;;;2.08;1.70;;;24.30;93.00;;;;;;4194508;28;20265;-72
2022/09/03 01:47:20;;;;;;;2.22;2.03;;;24.30;93.00;;;;;;4189092;28;20865;-72
2022/09/03 01:49:28;;;;;;;2.45;1.98;;;24.30;92.90;;;;;;4193956;28;20854;-72
2022/09/03 01:51:32;;;;;;;2.53;1.90;;;24.30;93.40;;;;;;4187348;28;20663;-73
2022/09/03 01:53:52;;;;;;;2.53;1.63;;;24.30;92.90;;;;;;4192440;28;20352;-72
2022/09/03 01:56:10;;;;;;;2.78;2.03;;;24.30;93.00;;;;;;4192947;28;20211;-74
2022/09/03 01:58:19;;;;;;;3.45;2.17;;;24.30;93.00;;;;;;4190673;28;20212;-72
2022/09/03 02:00:24;;;;;;;3.63;2.00;;;24.30;92.90;;;;;;4188044;28;20243;-72
2022/09/03 02:02:29;;;;;;;2.75;1.80;;;24.30;92.90;;;;;;4196822;28;20332;-72
2022/09/03 02:04:32;;;;;;;2.97;1.90;;;24.30;93.00;;;;;;4191980;28;20211;-74
2022/09/03 02:06:35;;;;;;;2.05;1.85;;;24.30;93.00;;;;;;4191413;28;20281;-74
2022/09/03 02:08:37;;;;;;;2.60;1.90;;;24.30;93.10;;;;;;4190735;28;20269;-74
2022/09/03 02:10:42;;;;;;;2.65;2.10;;;24.30;93.10;;;;;;4196489;28;20276;-74
2022/09/03 02:12:49;;;;;;;1.80;1.70;;;24.30;93.30;;;;;;4195763;28;20279;-74
2022/09/03 02:14:52;;;;;;;2.38;1.90;;;24.30;93.10;;;;;;4191403;28;20219;-74
2022/09/03 02:16:57;;;;;;;3.13;2.10;;;24.30;93.10;;;;;;4191898;28;20215;-74
2022/09/03 02:19:02;;;;;;;2.75;1.70;;;24.30;93.30;;;;;;4195236;28;20257;-74
2022/09/03 02:21:05;;;;;;;5.30;1.90;;;24.20;93.10;;;;;;4194415;28;20199;-72
2022/09/03 02:23:07;;;;;;;2.17;1.70;;;24.20;93.10;;;;;;4196113;28;20215;-72
2022/09/03 02:25:10;;;;;;;2.10;1.90;;;24.30;93.20;;;;;;4194914;28;20640;-74
2022/09/03 02:27:13;;;;;;;2.13;1.92;;;24.30;93.20;;;;;;4190451;28;20211;-74
2022/09/03 02:29:16;;;;;;;2.28;2.00;;;24.30;93.20;;;;;;4194115;28;20211;-74
2022/09/03 02:31:19;;;;;;;2.22;2.00;;;24.20;93.20;;;;;;4191126;28;20206;-74
2022/09/03 02:33:22;;;;;;;2.35;1.75;;;24.20;93.30;;;;;;4194662;28;20218;-74
2022/09/03 02:35:25;;;;;;;2.30;1.98;;;24.20;93.30;;;;;;4199800;28;20676;-74
2022/09/03 02:37:27;;;;;;;2.55;1.83;;;24.20;93.30;;;;;;4199786;28;20248;-75
2022/09/03 02:39:29;;;;;;;1.73;1.63;;;24.20;93.30;;;;;;4202533;28;20253;-74
2022/09/03 02:41:32;;;;;;;2.15;1.90;;;24.30;93.40;;;;;;4201914;28;20241;-74
2022/09/03 02:43:41;;;;;;;2.47;2.03;;;24.30;93.50;;;;;;4198535;28;20264;-74
2022/09/03 02:45:47;;;;;;;2.05;1.95;;;24.30;93.50;;;;;;4190927;28;20216;-74
2022/09/03 02:47:54;;;;;;;2.35;2.00;;;24.20;93.60;;;;;;4199268;28;20962;-74
2022/09/03 02:49:57;;;;;;;2.20;1.83;;;24.30;93.70;;;;;;4194065;28;20264;-75
2022/09/03 02:52:04;;;;;;;2.13;1.77;;;24.30;93.60;;;;;;4199119;28;20253;-74
2022/09/03 02:54:06;;;;;;;2.53;1.90;;;24.20;93.50;;;;;;4193470;28;20265;-74
2022/09/03 02:56:09;;;;;;;2.72;2.10;;;24.20;93.90;;;;;;4203273;28;20215;-74
2022/09/03 02:58:11;;;;;;;2.15;1.88;;;24.20;93.60;;;;;;4198224;28;20301;-74
2022/09/03 03:00:14;;;;;;;2.20;1.80;;;24.20;93.70;;;;;;4194587;28;20618;-74
2022/09/03 03:02:17;;;;;;;1.92;1.60;;;24.20;93.70;;;;;;4194439;28;20783;-74
2022/09/03 03:04:19;;;;;;;2.42;1.80;;;24.20;93.70;;;;;;4204914;28;20211;-74
2022/09/03 03:06:23;;;;;;;2.63;2.00;;;24.20;93.70;;;;;;4199434;28;20273;-74
2022/09/03 03:08:27;;;;;;;2.33;2.13;;;24.20;93.70;;;;;;4188108;28;20227;-74
2022/09/03 03:10:30;;;;;;;2.67;1.98;;;24.20;93.80;;;;;;4199861;28;20215;-74
2022/09/03 03:12:32;;;;;;;2.10;1.90;;;24.20;93.90;;;;;;4189948;28;20215;-72
2022/09/03 03:14:34;;;;;;;2.88;2.10;;;24.20;93.90;;;;;;4198394;28;20622;-73
2022/09/03 03:16:36;;;;;;;2.08;1.85;;;24.20;94.00;;;;;;4199085;28;20668;-73
2022/09/03 03:18:39;;;;;;;5.07;2.50;;;24.20;94.10;;;;;;4198370;28;20265;-74
2022/09/03 03:20:42;;;;;;;3.83;2.20;;;24.20;94.50;;;;;;4196773;28;20219;-73
2022/09/03 03:22:45;;;;;;;3.15;2.03;;;24.20;94.20;;;;;;4203844;28;20290;-74
2022/09/03 03:24:49;;;;;;;2.30;2.10;;;24.20;94.20;;;;;;4198930;28;20207;-72
2022/09/03 03:26:51;;;;;;;2.60;2.05;;;24.20;94.20;;;;;;4191868;28;20219;-72
2022/09/03 03:28:58;;;;;;;3.47;2.20;;;24.20;94.20;;;;;;4198274;28;20207;-72
2022/09/03 03:31:04;;;;;;;2.75;1.90;;;24.20;94.30;;;;;;4199165;28;20215;-73
2022/09/03 03:33:07;;;;;;;2.08;1.83;;;24.20;94.30;;;;;;4197515;28;20211;-72
2022/09/03 03:35:10;;;;;;;2.70;1.98;;;24.20;94.30;;;;;;4199836;28;20215;-72
2022/09/03 03:37:12;;;;;;;2.90;2.00;;;24.20;94.30;;;;;;4185677;28;20207;-73
2022/09/03 03:39:16;;;;;;;2.20;2.00;;;24.20;94.40;;;;;;4194706;28;20219;-72
2022/09/03 03:41:21;;;;;;;2.10;1.90;;;24.20;94.40;;;;;;4194020;28;20215;-72
2022/09/03 03:43:23;;;;;;;2.25;2.05;;;24.20;94.50;;;;;;4192195;28;20625;-72
2022/09/03 03:45:26;;;;;;;2.35;1.83;;;24.20;95.10;;;;;;4192056;28;20207;-72
2022/09/03 03:47:29;;;;;;;2.80;2.17;;;24.20;94.60;;;;;;4195971;28;20215;-72
2022/09/03 03:49:32;;;;;;;3.05;2.25;;;24.20;94.60;;;;;;4196056;28;20236;-72
2022/09/03 03:51:34;;;;;;;2.92;2.03;;;24.20;94.70;;;;;;4196651;28;20211;-72
2022/09/03 03:53:38;;;;;;;2.75;2.00;;;24.20;94.80;;;;;;4195594;28;20211;-72
2022/09/03 03:55:42;;;;;;;3.60;2.30;;;24.20;94.80;;;;;;4197493;28;20273;-72
2022/09/03 03:57:44;;;;;;;2.78;2.25;;;24.20;94.70;;;;;;4196458;28;20608;-72
2022/09/03 03:59:47;;;;;;;3.30;1.88;;;24.20;94.80;;;;;;4194500;28;20226;-72
2022/09/03 04:01:50;;;;;;;3.10;2.38;;;24.20;94.80;;;;;;4196158;28;20219;-72
2022/09/03 04:03:54;;;;;;;2.80;2.05;;;24.20;94.90;;;;;;4197615;28;20732;-72
2022/09/03 04:05:58;;;;;;;3.33;2.20;;;24.20;95.30;;;;;;4195856;28;20219;-72
2022/09/03 04:08:02;;;;;;;2.83;2.10;;;24.20;95.00;;;;;;4196433;28;20218;-72
2022/09/03 04:10:06;;;;;;;2.90;1.90;;;24.20;95.20;;;;;;4194868;28;20276;-72
2022/09/03 04:12:10;;;;;;;2.15;1.90;;;24.20;95.30;;;;;;4194803;28;20214;-73
2022/09/03 04:14:12;;;;;;;2.47;2.10;;;24.20;95.30;;;;;;4196113;28;20459;-72
2022/09/03 04:16:17;;;;;;;2.78;2.30;;;24.20;95.30;;;;;;4193106;28;20219;-72
2022/09/03 04:18:19;;;;;;;2.10;1.88;;;24.20;95.30;;;;;;4194758;28;20623;-72
2022/09/03 04:20:22;;;;;;;2.50;2.30;;;24.20;95.30;;;;;;4195132;28;20215;-72
2022/09/03 04:22:24;;;;;;;2.55;2.10;;;24.20;95.30;;;;;;4195538;28;20772;-72
2022/09/03 04:24:27;;;;;;;2.05;1.92;;;24.20;95.40;;;;;;4195292;28;20874;-72
2022/09/03 04:26:31;;;;;;;3.85;1.98;;;24.20;95.30;;;;;;4195729;28;20219;-72
2022/09/03 04:28:36;;;;;;;2.53;2.17;;;24.20;96.10;;;;;;4195535;28;20230;-73
2022/09/03 04:30:38;;;;;;;2.67;2.13;;;24.10;95.60;;;;;;4195236;28;20676;-72
2022/09/03 04:32:53;;;;;;;2.10;1.92;;;24.10;95.90;;;;;;4195466;28;20261;-72
2022/09/03 04:34:56;;;;;;;2.50;2.30;;;24.10;95.80;;;;;;4195552;28;20215;-72
2022/09/03 04:36:58;;;;;;;3.03;2.40;;;24.20;96.20;;;;;;4195101;28;20211;-72
2022/09/03 04:39:01;;;;;;;2.30;2.00;;;24.10;95.90;;;;;;4192127;28;20215;-72
2022/09/03 04:41:05;;;;;;;2.60;2.20;;;24.10;96.00;;;;;;4197298;28;20281;-72
2022/09/03 04:43:07;;;;;;;2.35;1.92;;;24.10;96.10;;;;;;4198995;28;20230;-72
2022/09/03 04:45:17;;;;;;;2.33;2.13;;;24.10;96.10;;;;;;4199315;28;20260;-73
2022/09/03 04:47:19;;;;;;;2.92;2.63;;;24.10;96.20;;;;;;4195390;28;20609;-72
2022/09/03 04:49:23;;;;;;;2.25;2.00;;;24.10;96.20;;;;;;4202849;28;20214;-72
2022/09/03 04:51:27;;;;;;;2.13;1.92;;;24.10;96.20;;;;;;4206352;28;20222;-72
2022/09/03 04:53:29;;;;;;;2.25;1.90;;;24.20;96.40;;;;;;4192289;28;20211;-72
2022/09/03 04:55:33;;;;;;;2.05;1.85;;;24.10;96.50;;;;;;4198961;28;20263;-72
2022/09/03 04:57:36;;;;;;;2.17;1.98;;;24.10;96.50;;;;;;4205913;28;20655;-72
2022/09/03 04:59:39;;;;;;;2.30;2.10;;;24.10;96.80;;;;;;4203458;28;20242;-72
2022/09/03 05:01:43;;;;;;;2.50;2.30;;;24.10;96.70;;;;;;4196562;28;20265;-72
2022/09/03 05:03:46;;;;;;;2.90;2.30;;;24.10;96.90;;;;;;4197752;28;20257;-74
2022/09/03 05:05:53;;;;;;;2.70;2.28;;;24.10;97.00;;;;;;4201509;28;20215;-74
2022/09/03 05:07:58;;;;;;;2.05;1.90;;;24.10;96.90;;;;;;4193969;28;20677;-74
2022/09/03 05:10:01;;;;;;;2.40;2.10;;;24.10;97.00;;;;;;4203339;28;20222;-73
2022/09/03 05:12:04;;;;;;;2.53;2.33;;;24.10;97.00;;;;;;4204402;28;20223;-73
2022/09/03 05:14:10;;;;;;;2.08;1.88;;;24.10;97.10;;;;;;4197781;28;20557;-74
2022/09/03 05:16:12;;;;;;;2.55;1.83;;;24.10;97.10;;;;;;4204132;28;20211;-74
2022/09/03 05:18:16;;;;;;;3.13;2.15;;;24.10;97.20;;;;;;4202413;28;20671;-74
2022/09/03 05:20:19;;;;;;;2.08;1.90;;;24.10;97.20;;;;;;4200430;28;20281;-74
2022/09/03 05:22:21;;;;;;;2.42;2.00;;;24.10;97.40;;;;;;4198616;28;20662;-74
2022/09/03 05:24:24;;;;;;;2.55;1.90;;;24.10;97.40;;;;;;4201007;28;20288;-74
2022/09/03 05:26:28;;;;;;;2.67;2.22;;;24.10;97.50;;;;;;4196556;28;20211;-74
2022/09/03 05:28:31;;;;;;;2.80;2.25;;;24.10;97.60;;;;;;4198648;28;20211;-74
2022/09/03 05:30:33;;;;;;;2.60;2.03;;;24.10;97.70;;;;;;4195846;28;20222;-74
2022/09/03 05:32:35;;;;;;;2.78;2.05;;;24.10;97.70;;;;;;4193951;28;20219;-74
2022/09/03 05:34:39;;;;;;;2.72;2.53;;;24.10;97.80;;;;;;4195542;28;21030;-74
2022/09/03 05:36:41;;;;;;;3.10;2.13;;;24.10;97.90;;;;;;4195420;28;20215;-73
2022/09/03 05:38:44;;;;;;;2.10;1.95;;;24.10;98.00;;;;;;4197887;28;20246;-73
2022/09/03 05:40:47;;;;;;;2.20;2.00;;;24.10;98.00;;;;;;4195949;28;20240;-74
2022/09/03 05:42:56;;;;;;;2.67;2.10;;;24.10;98.10;;;;;;4194302;28;20220;-74
2022/09/03 05:44:58;;;;;;;2.63;2.28;;;24.10;98.20;;;;;;4194917;28;20211;-74
2022/09/03 05:47:01;;;;;;;3.53;2.10;;;24.10;98.20;;;;;;4192994;28;20219;-73
2022/09/03 05:49:05;;;;;;;2.20;2.00;;;24.10;98.30;;;;;;4193900;28;20215;-74
2022/09/03 05:51:11;;;;;;;2.95;2.20;;;24.00;98.40;;;;;;4196265;28;20622;-74
2022/09/03 05:53:13;;;;;;;2.90;2.30;;;24.10;98.50;;;;;;4195482;28;20581;-74
2022/09/03 05:55:16;;;;;;;2.40;1.98;;;24.10;98.50;;;;;;4194930;28;20373;-74
2022/09/03 05:57:18;;;;;;;3.22;2.17;;;24.10;98.60;;;;;;4194069;28;20214;-73
2022/09/03 05:59:20;;;;;;;3.20;2.30;;;24.10;98.70;;;;;;4191232;28;20215;-73
2022/09/03 06:01:24;;;;;;;2.15;1.95;;;24.10;98.70;;;;;;4181671;28;20273;-74
2022/09/03 06:03:26;;;;;;;2.22;2.03;;;24.10;98.80;;;;;;4181215;28;20281;-74
2022/09/03 06:05:29;;;;;;;2.72;2.20;;;24.10;98.90;;;;;;4181375;28;20259;-74
2022/09/03 06:07:33;;;;;;;2.50;2.10;;;24.10;99.10;;;;;;4179966;28;20285;-74
2022/09/03 06:09:35;;;;;;;2.40;2.15;;;24.10;99.20;;;;;;4179127;28;20215;-74
2022/09/03 06:11:39;;;;;;;2.97;1.90;;;24.10;99.70;;;;;;4181296;28;20289;-74
2022/09/03 06:13:41;;;;;;;2.63;2.05;;;24.10;99.30;;;;;;4181530;28;20220;-74
2022/09/03 06:15:43;;;;;;;3.33;2.25;;;24.10;99.30;;;;;;4179737;28;20266;-74
2022/09/03 06:17:45;;;;;;;2.08;1.85;;;24.10;99.40;;;;;;4181857;28;20660;-76
2022/09/03 06:19:48;;;;;;;2.30;2.10;;;24.10;99.40;;;;;;4181269;28;20220;-74
2022/09/03 06:21:50;;;;;;;2.45;2.15;;;24.10;99.50;;;;;;4178396;28;20262;-73
2022/09/03 06:23:56;;;;;;;2.20;2.00;;;24.10;99.60;;;;;;4179423;28;20239;-74
2022/09/03 06:26:02;;;;;;;2.30;1.88;;;24.10;99.70;;;;;;4178495;28;20269;-74
2022/09/03 06:28:07;;;;;;;2.45;1.98;;;24.10;99.70;;;;;;4180792;28;20285;-73
2022/09/03 06:30:10;;;;;;;2.85;2.08;;;24.10;99.80;;;;;;4179113;28;20215;-74
2022/09/03 06:32:13;;;;;;;4.68;2.40;;;24.10;99.90;;;;;;4179261;28;20219;-74
2022/09/03 06:34:17;;;;;;;2.30;2.10;;;24.00;99.90;;;;;;4179921;28;20265;-74
2022/09/03 06:36:21;;;;;;;2.55;2.35;;;24.10;99.90;;;;;;4181444;28;20282;-74
2022/09/03 06:38:24;;;;;;;2.55;2.00;;;24.00;99.90;;;;;;4180060;28;20257;-74
2022/09/03 06:40:28;;;;;;;2.40;2.15;;;24.10;99.90;;;;;;4174076;28;20243;-74
2022/09/03 06:42:30;;;;;;;3.10;2.08;;;24.10;99.90;;;;;;4179856;28;20220;-74
2022/09/03 06:44:32;;;;;;;2.40;1.95;;;24.10;99.90;;;;;;4179372;28;20281;-73
2022/09/03 06:46:37;;;;;;;2.20;2.00;;;24.10;99.90;;;;;;4182905;28;20257;-73
2022/09/03 06:48:40;;;;;;;2.00;1.85;;;24.10;99.90;;;;;;4179294;28;20223;-74
2022/09/03 06:50:42;;;;;;;2.63;2.05;;;24.10;99.90;;;;;;4179332;28;20220;-74
2022/09/03 06:52:45;;;;;;;2.17;1.98;;;24.10;99.90;;;;;;4180158;28;20288;-74
2022/09/03 06:54:47;;;;;;;2.97;1.98;;;24.10;99.90;;;;;;4179641;28;20264;-74
2022/09/03 06:56:51;;;;;;;3.70;2.20;;;24.10;99.90;;;;;;4176397;28;20215;-74
2022/09/03 06:58:55;;;;;;;3.38;2.30;;;24.10;99.90;;;;;;4178823;28;20210;-74
2022/09/03 07:01:02;;;;;;;2.80;2.00;;;24.10;99.90;;;;;;4182380;28;20230;-74
2022/09/03 07:03:04;;;;;;;3.03;2.20;;;24.10;99.90;;;;;;4182081;28;20285;-74
2022/09/03 07:05:07;;;;;;;2.22;2.03;;;24.10;99.90;;;;;;4182515;28;20240;-74
2022/09/03 07:07:12;;;;;;;2.45;2.25;;;24.10;99.90;;;;;;4183793;28;20219;-74
2022/09/03 07:09:17;;;;;;;2.30;2.10;;;24.10;99.90;;;;;;4184144;28;20264;-74
2022/09/03 07:11:22;;;;;;;1.73;1.63;;;24.10;99.90;;;;;;4180315;28;20215;-73
2022/09/03 07:13:25;;;;;;;2.75;2.38;;;24.10;99.90;;;;;;4184700;28;20212;-74
2022/09/03 07:15:28;;;;;;;2.83;2.08;;;24.10;99.90;;;;;;4183044;28;20207;-74
2022/09/03 07:17:30;;;;;;;2.38;2.05;;;24.10;99.90;;;;;;4183315;28;20744;-74
2022/09/03 07:19:32;;;;;;;2.25;2.03;;;24.10;99.90;;;;;;4182549;28;20224;-74
2022/09/03 07:21:36;;;;;;;2.30;2.10;;;24.10;99.90;;;;;;4182828;28;20219;-72
2022/09/03 07:23:39;;;;;;;2.10;1.90;;;24.10;99.90;;;;;;4184276;28;20314;-72
2022/09/03 07:25:42;;;;;;;2.45;2.00;;;24.10;99.90;;;;;;4181720;28;20219;-72
2022/09/03 07:27:46;;;;;;;2.97;2.03;;;24.10;99.90;;;;;;4181962;28;20219;-72
2022/09/03 07:29:49;;;;;;;2.58;2.30;;;24.10;99.90;;;;;;4182368;28;20276;-72
2022/09/03 07:31:51;;;;;;;2.75;2.20;;;24.10;99.90;;;;;;4181633;28;20622;-72
2022/09/03 07:33:55;;;;;;;2.20;1.92;;;24.10;99.90;;;;;;4184598;28;20237;-72
2022/09/03 07:36:03;;;;;;;2.90;2.22;;;24.10;99.90;;;;;;4181901;28;20227;-72
2022/09/03 07:38:05;;;;;;;2.75;2.20;;;24.10;99.90;;;;;;4184351;28;20273;-72
2022/09/03 07:40:08;;;;;;;3.22;1.90;;;24.10;99.90;;;;;;4183494;28;20274;-73
2022/09/03 07:42:11;;;;;;;3.45;2.00;;;24.10;99.90;;;;;;4183704;28;20211;-72
2022/09/03 07:44:14;;;;;;;1.90;1.80;;;24.10;99.90;;;;;;4182566;28;20234;-72
2022/09/03 07:46:21;;;;;;;3.15;2.08;;;24.10;99.90;;;;;;4184587;28;20241;-72
2022/09/03 07:48:24;;;;;;;3.42;2.05;;;24.20;99.90;;;;;;4184965;28;20613;-72
2022/09/03 07:50:27;;;;;;;2.40;2.15;;;24.10;99.90;;;;;;4183158;28;20219;-72
2022/09/03 07:52:30;;;;;;;2.10;1.90;;;24.10;99.90;;;;;;4181435;28;20266;-72
2022/09/03 07:54:32;;;;;;;2.22;2.03;;;24.10;99.90;;;;;;4183601;28;20312;-72
2022/09/03 07:56:35;;;;;;;2.28;2.08;;;24.10;99.90;;;;;;4184517;28;20736;-72
2022/09/03 07:58:39;;;;;;;2.50;1.88;;;24.10;99.90;;;;;;4181531;28;20219;-72
2022/09/03 08:00:42;;;;;;;2.33;2.10;;;24.20;99.90;;;;;;4191341;28;20231;-72
2022/09/03 08:02:45;;;;;;;2.47;2.00;;;24.20;99.90;;;;;;4195152;28;20219;-72
2022/09/03 08:04:47;;;;;;;2.15;1.88;;;24.20;99.90;;;;;;4192137;28;20231;-72
2022/09/03 08:06:54;;;;;;;2.30;2.10;;;24.10;99.90;;;;;;4194489;28;20237;-72
2022/09/03 08:08:58;;;;;;;2.15;1.98;;;24.20;99.90;;;;;;4192809;28;20215;-72
2022/09/03 08:11:06;;;;;;;2.33;2.13;;;24.20;99.90;;;;;;4193323;28;20265;-72
2022/09/03 08:13:09;;;;;;;3.25;2.13;;;24.20;99.90;;;;;;4193029;28;20214;-72
2022/09/03 08:15:12;;;;;;;2.03;1.80;;;24.20;99.90;;;;;;4190050;28;20207;-72
2022/09/03 08:17:14;;;;;;;2.35;2.03;;;24.20;99.90;;;;;;4193421;28;20218;-73
2022/09/03 08:19:18;;;;;;;2.03;1.92;;;24.20;99.90;;;;;;4193550;28;20219;-73
2022/09/03 08:21:21;;;;;;;2.55;1.85;;;24.20;99.90;;;;;;4192750;28;20285;-73
2022/09/03 08:23:23;;;;;;;2.08;1.90;;;24.20;99.90;;;;;;4193491;28;20258;-73
2022/09/03 08:25:25;;;;;;;2.40;2.20;;;24.20;99.90;;;;;;4192570;28;20231;-73
2022/09/03 08:27:29;;;;;;;2.22;2.03;;;24.20;99.90;;;;;;4193341;28;20211;-73
2022/09/03 08:29:31;;;;;;;2.45;2.10;;;24.20;99.90;;;;;;4192476;28;20276;-73
2022/09/03 08:31:35;;;;;;;2.33;2.05;;;24.20;99.90;;;;;;4192766;28;20227;-72
2022/09/03 08:33:38;;;;;;;2.83;2.08;;;24.20;99.90;;;;;;4195361;28;20226;-73
2022/09/03 08:35:41;;;;;;;2.15;1.95;;;24.20;99.90;;;;;;4197478;28;20215;-72
2022/09/03 08:37:44;;;;;;;2.22;2.03;;;24.20;99.90;;;;;;4196260;28;20219;-72
2022/09/03 08:39:46;;;;;;;2.38;2.00;;;24.20;99.90;;;;;;4194625;28;20219;-72
2022/09/03 08:42:18;;;;;;;4.13;2.10;;;24.20;99.90;;;;;;4195384;28;20211;-73
2022/09/03 08:44:25;;;;;;;2.13;1.77;;;24.20;99.90;;;;;;4195110;28;20261;-72
2022/09/03 08:46:40;;;;;;;2.40;1.90;;;24.30;99.90;;;;;;4194540;28;20211;-72
2022/09/03 08:48:43;;;;;;;2.10;1.98;;;24.30;99.90;;;;;;4196057;28;20729;-72
2022/09/03 08:50:50;;;;;;;3.55;2.13;;;24.30;99.90;;;;;;4196132;28;20218;-72
2022/09/03 08:52:58;;;;;;;1.90;1.80;;;24.30;99.90;;;;;;4196907;28;20948;-72
2022/09/03 08:55:13;;;;;;;2.97;2.20;;;24.30;99.90;;;;;;4195671;28;20253;-72
2022/09/03 08:57:18;;;;;;;2.15;1.95;;;24.30;99.90;;;;;;4196019;28;20211;-75
2022/09/03 08:59:21;;;;;;;2.40;2.20;;;24.30;99.90;;;;;;4194390;28;20199;-73
2022/09/03 09:01:33;;;;;;;2.50;1.80;;;24.30;99.90;;;;;;4195980;28;20215;-73
2022/09/03 09:03:46;;;;;;;2.30;1.75;;;24.30;99.90;;;;;;4196759;28;20230;-73
2022/09/03 09:05:55;;;;;;;2.05;1.88;;;24.40;99.90;;;;;;4198556;28;20676;-75
2022/09/03 09:08:06;;;;;;;2.50;2.25;;;24.30;99.90;;;;;;4196202;28;20264;-73
2022/09/03 09:10:16;;;;;;;2.72;2.03;;;24.30;99.90;;;;;;4196321;28;20260;-73
2022/09/03 09:12:31;;;;;;;3.97;2.05;;;24.30;99.90;;;;;;4195023;28;20257;-73
2022/09/03 09:14:40;;;;;;;2.13;1.90;;;24.30;99.90;;;;;;4196681;28;20280;-73
2022/09/03 09:16:53;;;;;;;2.88;2.25;;;24.40;99.90;;;;;;4195332;28;20219;-73
2022/09/03 09:19:10;;;;;;;2.35;2.08;;;24.40;99.90;;;;;;4196699;28;20269;-73
2022/09/03 09:21:18;;;;;;;1.88;1.75;;;24.30;99.90;;;;;;4194762;28;20269;-73
2022/09/03 09:23:27;;;;;;;4.45;2.10;;;24.40;99.90;;;;;;4196293;28;20264;-73
2022/09/03 09:25:31;;;;;;;2.25;2.08;;;24.40;99.90;;;;;;4196050;28;20276;-73
2022/09/03 09:27:33;;;;;;;2.13;1.92;;;24.30;99.90;;;;;;4195564;28;20211;-73
2022/09/03 09:29:38;;;;;;;2.20;2.00;;;24.40;99.90;;;;;;4196997;28;20611;-73
2022/09/03 09:31:43;;;;;;;2.30;2.10;;;24.40;99.90;;;;;;4196508;28;20248;-73
2022/09/03 09:33:46;;;;;;;2.03;1.75;;;24.30;99.90;;;;;;4194710;28;20219;-73
2022/09/03 09:35:48;;;;;;;2.05;1.70;;;24.40;99.90;;;;;;4195506;28;20273;-73
2022/09/03 09:37:54;;;;;;;1.92;1.80;;;24.40;99.90;;;;;;4194926;28;20637;-73
2022/09/03 09:39:58;;;;;;;2.55;2.22;;;24.40;99.90;;;;;;4196374;28;20226;-73
2022/09/03 09:42:08;;;;;;;2.45;1.85;;;24.40;99.90;;;;;;4196551;28;20713;-73
2022/09/03 09:44:19;;;;;;;2.08;1.88;;;24.40;99.90;;;;;;4195167;28;20215;-73
2022/09/03 09:46:25;;;;;;;2.10;1.90;;;24.40;99.90;;;;;;4196240;28;20290;-73
2022/09/03 09:48:31;;;;;;;3.42;2.22;;;24.40;99.90;;;;;;4196332;28;20211;-73
2022/09/03 09:50:33;;;;;;;2.25;2.03;;;24.40;99.90;;;;;;4194989;28;20280;-73
2022/09/03 09:52:36;;;;;;;2.45;1.75;;;24.40;99.90;;;;;;4195070;28;20566;-73
2022/09/03 09:54:40;;;;;;;3.25;2.17;;;24.40;99.90;;;;;;4195617;28;20219;-73
2022/09/03 09:56:43;;;;;;;3.33;2.20;;;24.40;99.90;;;;;;4195837;28;20303;-73
2022/09/03 09:58:45;;;;;;;4.25;2.30;;;24.40;99.90;;;;;;4195004;28;20268;-73
2022/09/03 10:00:59;;;;;;;3.72;2.20;;;24.40;99.90;;;;;;4182054;28;20235;-73
2022/09/03 10:03:01;;;;;;;2.17;1.98;;;24.40;99.90;;;;;;4168833;28;20212;-73
2022/09/03 10:05:14;;;;;;;2.15;1.95;;;24.40;99.90;;;;;;4174065;28;20220;-73
2022/09/03 10:07:23;;;;;;;2.20;2.00;;;24.50;99.90;;;;;;4167639;28;20278;-73
2022/09/03 10:09:29;;;;;;;2.25;2.05;;;24.40;99.90;;;;;;4179376;28;20234;-73
2022/09/03 10:11:38;;;;;;;1.95;1.80;;;24.40;99.90;;;;;;4171643;28;20216;-73
2022/09/03 10:13:45;;;;;;;2.20;2.00;;;24.40;99.90;;;;;;4170345;28;20629;-73
2022/09/03 10:15:51;;;;;;;2.35;2.00;;;24.50;99.90;;;;;;4170967;28;20208;-73
2022/09/03 10:18:01;;;;;;;2.25;2.05;;;24.40;99.90;;;;;;4174025;28;20223;-73
2022/09/03 10:20:30;;;;;;;2.50;2.00;;;24.50;99.90;;;;;;4177250;28;20266;-73
2022/09/03 10:22:40;;;;;;;2.10;1.90;;;24.50;99.90;;;;;;4175439;28;20598;-73
2022/09/03 10:24:56;;;;;;;3.67;2.33;;;24.50;99.90;;;;;;4173902;28;20630;-73
2022/09/03 10:27:00;;;;;;;2.13;1.92;;;24.50;99.90;;;;;;4178033;28;20262;-73
2022/09/03 10:29:05;;;;;;;2.20;2.00;;;24.50;99.90;;;;;;4178133;28;20270;-73
2022/09/03 10:31:25;;;;;;;2.17;1.90;;;24.50;99.90;;;;;;4177379;28;20277;-73
2022/09/03 10:33:33;;;;;;;2.53;2.15;;;24.50;99.90;;;;;;4177737;28;20227;-73
2022/09/03 10:35:44;;;;;;;2.40;2.17;;;24.50;99.90;;;;;;4177873;28;20265;-73
2022/09/03 10:37:54;;;;;;;3.13;2.15;;;24.50;99.90;;;;;;4176856;28;20620;-73
2022/09/03 10:40:11;;;;;;;2.47;2.10;;;24.50;99.90;;;;;;4178841;28;20215;-73
2022/09/03 10:42:27;;;;;;;2.17;1.98;;;24.50;99.90;;;;;;4173073;28;20215;-73
2022/09/03 10:44:51;;;;;;;2.10;1.90;;;24.50;99.90;;;;;;4178388;28;20215;-73
2022/09/03 10:47:06;;;;;;;2.33;2.13;;;24.60;99.90;;;;;;4176284;28;20262;-73
2022/09/03 10:49:25;;;;;;;2.55;2.10;;;24.60;99.90;;;;;;4177711;28;20330;-73
2022/09/03 10:51:34;;;;;;;2.47;1.80;;;24.60;99.90;;;;;;4177538;28;20261;-73
2022/09/03 10:53:51;;;;;;;2.40;1.98;;;24.60;99.90;;;;;;4177847;28;20215;-73
2022/09/03 10:56:00;;;;;;;2.08;1.90;;;24.60;99.90;;;;;;4177581;28;20215;-73
2022/09/03 10:58:17;;;;;;;2.20;2.00;;;24.50;99.90;;;;;;4177067;28;20273;-73